Overview Statistics Trail Chart Weather Telemetry Raw packets
 

This is the latest recevied weather packets stored in our database for station/object W8KVG. If no packets are shown the sender has not sent any weather packets the latest 10 day(s).

<< 17 18 19 20 21 22 23 >>
Time Temp. Humidity Pressure Rain* Wind** Luminosity Snow
1777830854 14.44° C 39% 1015 hPa 0 mm - 922 W/m² -
1777830550 14.44° C 45% 1015.1 hPa 0 mm - 866 W/m² -
1777830248 13.89° C 42% 1015 hPa 0 mm - 198 W/m² -
1777829943 14.44° C 44% 1015.2 hPa 0 mm - 928 W/m² -
1777829640 13.89° C 42% 1015 hPa 0 mm - 880 W/m² -
1777829336 13.33° C 40% 1015.2 hPa 0 mm - 136 W/m² -
1777829034 13.33° C 44% 1015.3 hPa 0 mm - 839 W/m² -
1777828730 12.78° C 43% 1015.3 hPa 0 mm - 115 W/m² -
1777828427 12.78° C 42% 1015.3 hPa 0 mm - 394 W/m² -
1777828125 13.33° C 42% 1015.5 hPa 0 mm - 827 W/m² -
1777827821 13.33° C 40% 1015.4 hPa 0 mm - 819 W/m² -
1777827518 13.33° C 41% 1015.5 hPa 0 mm - 818 W/m² -
1777827216 13.33° C 39% 1015.5 hPa 0 mm - 824 W/m² -
1777826911 12.78° C 48% 1015.4 hPa 0 mm - 810 W/m² -
1777826609 12.78° C 43% 1015.6 hPa 0 mm - 806 W/m² -
1777826305 12.78° C 42% 1015.6 hPa 0 mm - 823 W/m² -
1777826003 12.22° C 41% 1015.7 hPa 0 mm - 797 W/m² -
1777825699 12.22° C 43% 1015.7 hPa 0 mm - 100 W/m² -
1777825398 12.78° C 41% 1015.7 hPa 0 mm - 117 W/m² -
1777825094 12.22° C 40% 1015.8 hPa 0 mm - 109 W/m² -
1777824790 12.78° C 44% 1015.8 hPa 0 mm - 118 W/m² -
1777824487 12.22° C 43% 1016.2 hPa 0 mm - 143 W/m² -
1777824183 11.67° C 40% 1016.2 hPa 0 mm - 137 W/m² -
1777823879 11.67° C 42% 1016.3 hPa 0 mm - 97 W/m² -
1777823577 11.67° C 44% 1015.9 hPa 0 mm - 138 W/m² -

* Rain latest hour (hover to see other rain measurements)
** Current wind speed in m/s (hover to see current wind gust speed)